Aviation Digital Data Service (ADDS)

Output produced by METARs form (1516 UTC 20 March 2019)
found at http://www.aviationweather.gov/metar/data/
 
METAR text: DAOO 201500Z 36014KT 9999 FEW023TCU SCT026 15/07 Q1023
Conditions at: DAOO (ORAN/ES SENIA , DZ) observed 1500 UTC 20 March 2019
Temperature: 15.0°C (59°F)
Dewpoint: 7.0°C (45°F) [RH = 59%]
Pressure (altimeter): 30.21 inches Hg (1023.0 mb)
Winds: from the N (360 degrees) at 16 MPH (14 knots; 7.2 m/s)
Visibility: 6 or more miles (10+ km)
Ceiling: at least 12,000 feet AGL
Clouds: few clouds at 2300 feet AGL
scattered clouds at 2600 feet AGL
Weather: no significant weather observed at this time

METAR text: DAOO 201430Z 36012KT 9999 FEW023TCU SCT026 15/06 Q1023
Conditions at: DAOO (ORAN/ES SENIA , DZ) observed 1430 UTC 20 March 2019
Temperature: 15.0°C (59°F)
Dewpoint: 6.0°C (43°F) [RH = 55%]
Pressure (altimeter): 30.21 inches Hg (1023.0 mb)
Winds: from the N (360 degrees) at 14 MPH (12 knots; 6.2 m/s)
Visibility: 6 or more miles (10+ km)
Ceiling: at least 12,000 feet AGL
Clouds: few clouds at 2300 feet AGL
scattered clouds at 2600 feet AGL
Weather: no significant weather observed at this time

METAR text: DAOO 201400Z 36012KT 9999 FEW023TCU SCT026 15/06 Q1023
Conditions at: DAOO (ORAN/ES SENIA , DZ) observed 1400 UTC 20 March 2019
Temperature: 15.0°C (59°F)
Dewpoint: 6.0°C (43°F) [RH = 55%]
Pressure (altimeter): 30.21 inches Hg (1023.0 mb)
Winds: from the N (360 degrees) at 14 MPH (12 knots; 6.2 m/s)
Visibility: 6 or more miles (10+ km)
Ceiling: at least 12,000 feet AGL
Clouds: few clouds at 2300 feet AGL
scattered clouds at 2600 feet AGL
Weather: no significant weather observed at this time

METAR text: DAOO 201330Z 04012KT 9999 FEW023TCU SCT026 14/06 Q1023
Conditions at: DAOO (ORAN/ES SENIA , DZ) observed 1330 UTC 20 March 2019
Temperature: 14.0°C (57°F)
Dewpoint: 6.0°C (43°F) [RH = 58%]
Pressure (altimeter): 30.21 inches Hg (1023.0 mb)
Winds: from the NE (40 degrees) at 14 MPH (12 knots; 6.2 m/s)
Visibility: 6 or more miles (10+ km)
Ceiling: at least 12,000 feet AGL
Clouds: few clouds at 2300 feet AGL
scattered clouds at 2600 feet AGL
Weather: no significant weather observed at this time

METAR text: DAOO 201300Z 32016KT 9999 -RA FEW023TCU SCT026 13/09 Q1024
Conditions at: DAOO (ORAN/ES SENIA , DZ) observed 1300 UTC 20 March 2019
Temperature: 13.0°C (55°F)
Dewpoint: 9.0°C (48°F) [RH = 77%]
Pressure (altimeter): 30.24 inches Hg (1024.0 mb)
Winds: from the NW (320 degrees) at 18 MPH (16 knots; 8.2 m/s)
Visibility: 6 or more miles (10+ km)
Ceiling: at least 12,000 feet AGL
Clouds: few clouds at 2300 feet AGL
scattered clouds at 2600 feet AGL
Weather: -RA  (light rain)

METAR text: DAOO 201230Z 32012KT 9999 FEW023TCU SCT026 14/08 Q1024
Conditions at: DAOO (ORAN/ES SENIA , DZ) observed 1230 UTC 20 March 2019
Temperature: 14.0°C (57°F)
Dewpoint: 8.0°C (46°F) [RH = 67%]
Pressure (altimeter): 30.24 inches Hg (1024.0 mb)
Winds: from the NW (320 degrees) at 14 MPH (12 knots; 6.2 m/s)
Visibility: 6 or more miles (10+ km)
Ceiling: at least 12,000 feet AGL
Clouds: few clouds at 2300 feet AGL
scattered clouds at 2600 feet AGL
Weather: no significant weather observed at this time

METAR text: DAOO 201200Z 32012KT 9999 FEW023TCU SCT026 13/08 Q1024
Conditions at: DAOO (ORAN/ES SENIA , DZ) observed 1200 UTC 20 March 2019
Temperature: 13.0°C (55°F)
Dewpoint: 8.0°C (46°F) [RH = 72%]
Pressure (altimeter): 30.24 inches Hg (1024.0 mb)
Winds: from the NW (320 degrees) at 14 MPH (12 knots; 6.2 m/s)
Visibility: 6 or more miles (10+ km)
Ceiling: at least 12,000 feet AGL
Clouds: few clouds at 2300 feet AGL
scattered clouds at 2600 feet AGL
Weather: no significant weather observed at this time

METAR text: DAOO 201130Z 02006KT 9999 FEW023TCU SCT026 14/08 Q1025
Conditions at: DAOO (ORAN/ES SENIA , DZ) observed 1130 UTC 20 March 2019
Temperature: 14.0°C (57°F)
Dewpoint: 8.0°C (46°F) [RH = 67%]
Pressure (altimeter): 30.27 inches Hg (1025.0 mb)
Winds: from the NNE (20 degrees) at 7 MPH (6 knots; 3.1 m/s)
Visibility: 6 or more miles (10+ km)
Ceiling: at least 12,000 feet AGL
Clouds: few clouds at 2300 feet AGL
scattered clouds at 2600 feet AGL
Weather: no significant weather observed at this time

METAR text: DAOO 201100Z 36004KT 9999 FEW023TCU SCT026 12/08 Q1025
Conditions at: DAOO (ORAN/ES SENIA , DZ) observed 1100 UTC 20 March 2019
Temperature: 12.0°C (54°F)
Dewpoint: 8.0°C (46°F) [RH = 76%]
Pressure (altimeter): 30.27 inches Hg (1025.0 mb)
Winds: from the N (360 degrees) at 5 MPH (4 knots; 2.1 m/s)
Visibility: 6 or more miles (10+ km)
Ceiling: at least 12,000 feet AGL
Clouds: few clouds at 2300 feet AGL
scattered clouds at 2600 feet AGL
Weather: no significant weather observed at this time

METAR text: DAOO 201030Z 32002KT 9999 -RA FEW023CB BKN026 10/08 Q1025
Conditions at: DAOO (ORAN/ES SENIA , DZ) observed 1030 UTC 20 March 2019
Temperature: 10.0°C (50°F)
Dewpoint: 8.0°C (46°F) [RH = 87%]
Pressure (altimeter): 30.27 inches Hg (1025.0 mb)
Winds: from the NW (320 degrees) at 2 MPH (2 knots; 1.0 m/s)
Visibility: 6 or more miles (10+ km)
Ceiling: 2600 feet AGL
Clouds: few clouds at 2300 feet AGL
broken clouds at 2600 feet AGL
Weather: -RA  (light rain)

METAR text: DAOO 201000Z 02008KT 9999 -RA FEW023CB BKN026 09/07 Q1026
Conditions at: DAOO (ORAN/ES SENIA , DZ) observed 1000 UTC 20 March 2019
Temperature: 9.0°C (48°F)
Dewpoint: 7.0°C (45°F) [RH = 87%]
Pressure (altimeter): 30.30 inches Hg (1026.0 mb)
Winds: from the NNE (20 degrees) at 9 MPH (8 knots; 4.1 m/s)
Visibility: 6 or more miles (10+ km)
Ceiling: 2600 feet AGL
Clouds: few clouds at 2300 feet AGL
broken clouds at 2600 feet AGL
Weather: -RA  (light rain)

METAR text: DAOO 200930Z 08003KT 9999 FEW023TCU SCT026 12/07 Q1025
Conditions at: DAOO (ORAN/ES SENIA , DZ) observed 0930 UTC 20 March 2019
Temperature: 12.0°C (54°F)
Dewpoint: 7.0°C (45°F) [RH = 71%]
Pressure (altimeter): 30.27 inches Hg (1025.0 mb)
Winds: from the E (80 degrees) at 3 MPH (3 knots; 1.5 m/s)
Visibility: 6 or more miles (10+ km)
Ceiling: at least 12,000 feet AGL
Clouds: few clouds at 2300 feet AGL
scattered clouds at 2600 feet AGL
Weather: no significant weather observed at this time

METAR text: DAOO 200900Z 04004KT 9999 -RA FEW023TCU SCT026 12/07 Q1025
Conditions at: DAOO (ORAN/ES SENIA , DZ) observed 0900 UTC 20 March 2019
Temperature: 12.0°C (54°F)
Dewpoint: 7.0°C (45°F) [RH = 71%]
Pressure (altimeter): 30.27 inches Hg (1025.0 mb)
Winds: from the NE (40 degrees) at 5 MPH (4 knots; 2.1 m/s)
Visibility: 6 or more miles (10+ km)
Ceiling: at least 12,000 feet AGL
Clouds: few clouds at 2300 feet AGL
scattered clouds at 2600 feet AGL
Weather: -RA  (light rain)

METAR text: DAOO 200830Z 00000KT 9999 FEW023TCU SCT026 12/09 Q1025
Conditions at: DAOO (ORAN/ES SENIA , DZ) observed 0830 UTC 20 March 2019
Temperature: 12.0°C (54°F)
Dewpoint: 9.0°C (48°F) [RH = 82%]
Pressure (altimeter): 30.27 inches Hg (1025.0 mb)
Winds: calm
Visibility: 6 or more miles (10+ km)
Ceiling: at least 12,000 feet AGL
Clouds: few clouds at 2300 feet AGL
scattered clouds at 2600 feet AGL
Weather: no significant weather observed at this time

METAR text: DAOO 200800Z 30002KT 9999 FEW023TCU SCT026 11/09 Q1024
Conditions at: DAOO (ORAN/ES SENIA , DZ) observed 0800 UTC 20 March 2019
Temperature: 11.0°C (52°F)
Dewpoint: 9.0°C (48°F) [RH = 87%]
Pressure (altimeter): 30.24 inches Hg (1024.0 mb)
Winds: from the WNW (300 degrees) at 2 MPH (2 knots; 1.0 m/s)
Visibility: 6 or more miles (10+ km)
Ceiling: at least 12,000 feet AGL
Clouds: few clouds at 2300 feet AGL
scattered clouds at 2600 feet AGL
Weather: no significant weather observed at this time

METAR text: DAOO 200730Z 00000KT 9999 SCT020TCU SCT026 FEW030 10/08 Q1024
Conditions at: DAOO (ORAN/ES SENIA , DZ) observed 0730 UTC 20 March 2019
Temperature: 10.0°C (50°F)
Dewpoint: 8.0°C (46°F) [RH = 87%]
Pressure (altimeter): 30.24 inches Hg (1024.0 mb)
Winds: calm
Visibility: 6 or more miles (10+ km)
Ceiling: at least 12,000 feet AGL
Clouds: scattered clouds at 2000 feet AGL
scattered clouds at 2600 feet AGL
few clouds at 3000 feet AGL
Weather: no significant weather observed at this time

METAR text: DAOO 200700Z 00000KT 9999 SCT020TCU SCT026 FEW030CB 08/07 Q1024
Conditions at: DAOO (ORAN/ES SENIA , DZ) observed 0700 UTC 20 March 2019
Temperature: 8.0°C (46°F)
Dewpoint: 7.0°C (45°F) [RH = 93%]
Pressure (altimeter): 30.24 inches Hg (1024.0 mb)
Winds: calm
Visibility: 6 or more miles (10+ km)
Ceiling: at least 12,000 feet AGL
Clouds: scattered clouds at 2000 feet AGL
scattered clouds at 2600 feet AGL
few clouds at 3000 feet AGL
Weather: no significant weather observed at this time

METAR text: DAOO 200630Z 18002KT 9999 SCT020 FEW023CB BKN030 08/07 Q1023
Conditions at: DAOO (ORAN/ES SENIA , DZ) observed 0630 UTC 20 March 2019
Temperature: 8.0°C (46°F)
Dewpoint: 7.0°C (45°F) [RH = 93%]
Pressure (altimeter): 30.21 inches Hg (1023.0 mb)
Winds: from the S (180 degrees) at 2 MPH (2 knots; 1.0 m/s)
Visibility: 6 or more miles (10+ km)
Ceiling: 3000 feet AGL
Clouds: scattered clouds at 2000 feet AGL
few clouds at 2300 feet AGL
broken clouds at 3000 feet AGL
Weather: no significant weather observed at this time

METAR text: DAOO 200600Z 00000KT 9999 RA SCT020 BKN030 08/07 Q1023
Conditions at: DAOO (ORAN/ES SENIA , DZ) observed 0600 UTC 20 March 2019
Temperature: 8.0°C (46°F)
Dewpoint: 7.0°C (45°F) [RH = 93%]
Pressure (altimeter): 30.21 inches Hg (1023.0 mb)
Winds: calm
Visibility: 6 or more miles (10+ km)
Ceiling: 3000 feet AGL
Clouds: scattered clouds at 2000 feet AGL
broken clouds at 3000 feet AGL
Weather: RA  (moderate rain)

METAR text: DAOO 200530Z 17002KT 9999 SCT020 BKN030 07/06 Q1022
Conditions at: DAOO (ORAN/ES SENIA , DZ) observed 0530 UTC 20 March 2019
Temperature: 7.0°C (45°F)
Dewpoint: 6.0°C (43°F) [RH = 93%]
Pressure (altimeter): 30.18 inches Hg (1022.0 mb)
Winds: from the S (170 degrees) at 2 MPH (2 knots; 1.0 m/s)
Visibility: 6 or more miles (10+ km)
Ceiling: 3000 feet AGL
Clouds: scattered clouds at 2000 feet AGL
broken clouds at 3000 feet AGL
Weather: no significant weather observed at this time

METAR text: DAOO 200500Z 17002KT 9999 SCT020 SCT030 07/06 Q1022
Conditions at: DAOO (ORAN/ES SENIA , DZ) observed 0500 UTC 20 March 2019
Temperature: 7.0°C (45°F)
Dewpoint: 6.0°C (43°F) [RH = 93%]
Pressure (altimeter): 30.18 inches Hg (1022.0 mb)
Winds: from the S (170 degrees) at 2 MPH (2 knots; 1.0 m/s)
Visibility: 6 or more miles (10+ km)
Ceiling: at least 12,000 feet AGL
Clouds: scattered clouds at 2000 feet AGL
scattered clouds at 3000 feet AGL
Weather: no significant weather observed at this time

METAR text: DAOO 200430Z 17002KT 9999 SCT020 SCT030 08/06 Q1023
Conditions at: DAOO (ORAN/ES SENIA , DZ) observed 0430 UTC 20 March 2019
Temperature: 8.0°C (46°F)
Dewpoint: 6.0°C (43°F) [RH = 87%]
Pressure (altimeter): 30.21 inches Hg (1023.0 mb)
Winds: from the S (170 degrees) at 2 MPH (2 knots; 1.0 m/s)
Visibility: 6 or more miles (10+ km)
Ceiling: at least 12,000 feet AGL
Clouds: scattered clouds at 2000 feet AGL
scattered clouds at 3000 feet AGL
Weather: no significant weather observed at this time

METAR text: DAOO 200400Z 00000KT 9999 SCT020 SCT030 08/06 Q1023
Conditions at: DAOO (ORAN/ES SENIA , DZ) observed 0400 UTC 20 March 2019
Temperature: 8.0°C (46°F)
Dewpoint: 6.0°C (43°F) [RH = 87%]
Pressure (altimeter): 30.21 inches Hg (1023.0 mb)
Winds: calm
Visibility: 6 or more miles (10+ km)
Ceiling: at least 12,000 feet AGL
Clouds: scattered clouds at 2000 feet AGL
scattered clouds at 3000 feet AGL
Weather: no significant weather observed at this time

METAR text: DAOO 200330Z 00000KT 9999 SCT020 BKN030 08/07 Q1023
Conditions at: DAOO (ORAN/ES SENIA , DZ) observed 0330 UTC 20 March 2019
Temperature: 8.0°C (46°F)
Dewpoint: 7.0°C (45°F) [RH = 93%]
Pressure (altimeter): 30.21 inches Hg (1023.0 mb)
Winds: calm
Visibility: 6 or more miles (10+ km)
Ceiling: 3000 feet AGL
Clouds: scattered clouds at 2000 feet AGL
broken clouds at 3000 feet AGL
Weather: no significant weather observed at this time

METAR text: DAOO 200300Z 24002KT 9999 SCT020 BKN030 08/07 Q1023
Conditions at: DAOO (ORAN/ES SENIA , DZ) observed 0300 UTC 20 March 2019
Temperature: 8.0°C (46°F)
Dewpoint: 7.0°C (45°F) [RH = 93%]
Pressure (altimeter): 30.21 inches Hg (1023.0 mb)
Winds: from the WSW (240 degrees) at 2 MPH (2 knots; 1.0 m/s)
Visibility: 6 or more miles (10+ km)
Ceiling: 3000 feet AGL
Clouds: scattered clouds at 2000 feet AGL
broken clouds at 3000 feet AGL
Weather: no significant weather observed at this time

METAR text: DAOO 200230Z 19002KT 9999 SCT020 BKN030 09/07 Q1023
Conditions at: DAOO (ORAN/ES SENIA , DZ) observed 0230 UTC 20 March 2019
Temperature: 9.0°C (48°F)
Dewpoint: 7.0°C (45°F) [RH = 87%]
Pressure (altimeter): 30.21 inches Hg (1023.0 mb)
Winds: from the S (190 degrees) at 2 MPH (2 knots; 1.0 m/s)
Visibility: 6 or more miles (10+ km)
Ceiling: 3000 feet AGL
Clouds: scattered clouds at 2000 feet AGL
broken clouds at 3000 feet AGL
Weather: no significant weather observed at this time

METAR text: DAOO 200200Z 11002KT 9999 SCT020 BKN030 09/07 Q1023
Conditions at: DAOO (ORAN/ES SENIA , DZ) observed 0200 UTC 20 March 2019
Temperature: 9.0°C (48°F)
Dewpoint: 7.0°C (45°F) [RH = 87%]
Pressure (altimeter): 30.21 inches Hg (1023.0 mb)
Winds: from the ESE (110 degrees) at 2 MPH (2 knots; 1.0 m/s)
Visibility: 6 or more miles (10+ km)
Ceiling: 3000 feet AGL
Clouds: scattered clouds at 2000 feet AGL
broken clouds at 3000 feet AGL
Weather: no significant weather observed at this time

METAR text: DAOO 200130Z 20002KT 9999 -RA SCT020 BKN030 08/05 Q1023
Conditions at: DAOO (ORAN/ES SENIA , DZ) observed 0130 UTC 20 March 2019
Temperature: 8.0°C (46°F)
Dewpoint: 5.0°C (41°F) [RH = 81%]
Pressure (altimeter): 30.21 inches Hg (1023.0 mb)
Winds: from the SSW (200 degrees) at 2 MPH (2 knots; 1.0 m/s)
Visibility: 6 or more miles (10+ km)
Ceiling: 3000 feet AGL
Clouds: scattered clouds at 2000 feet AGL
broken clouds at 3000 feet AGL
Weather: -RA  (light rain)

METAR text: DAOO 200030Z 00000KT 9999 SCT020 SCT030 08/05 Q1024
Conditions at: DAOO (ORAN/ES SENIA , DZ) observed 0030 UTC 20 March 2019
Temperature: 8.0°C (46°F)
Dewpoint: 5.0°C (41°F) [RH = 81%]
Pressure (altimeter): 30.24 inches Hg (1024.0 mb)
Winds: calm
Visibility: 6 or more miles (10+ km)
Ceiling: at least 12,000 feet AGL
Clouds: scattered clouds at 2000 feet AGL
scattered clouds at 3000 feet AGL
Weather: no significant weather observed at this time

METAR text: DAOO 200000Z 00000KT 9999 SCT020 SCT030 08/05 Q1024
Conditions at: DAOO (ORAN/ES SENIA , DZ) observed 0000 UTC 20 March 2019
Temperature: 8.0°C (46°F)
Dewpoint: 5.0°C (41°F) [RH = 81%]
Pressure (altimeter): 30.24 inches Hg (1024.0 mb)
Winds: calm
Visibility: 6 or more miles (10+ km)
Ceiling: at least 12,000 feet AGL
Clouds: scattered clouds at 2000 feet AGL
scattered clouds at 3000 feet AGL
Weather: no significant weather observed at this time

METAR text: DAOO 192330Z 02007KT 9999 SCT020 SCT030 09/06 Q1024
Conditions at: DAOO (ORAN/ES SENIA , DZ) observed 2330 UTC 19 March 2019
Temperature: 9.0°C (48°F)
Dewpoint: 6.0°C (43°F) [RH = 81%]
Pressure (altimeter): 30.24 inches Hg (1024.0 mb)
Winds: from the NNE (20 degrees) at 8 MPH (7 knots; 3.6 m/s)
Visibility: 6 or more miles (10+ km)
Ceiling: at least 12,000 feet AGL
Clouds: scattered clouds at 2000 feet AGL
scattered clouds at 3000 feet AGL
Weather: no significant weather observed at this time

METAR text: DAOO 192300Z 02007KT 9999 SCT020 SCT030 10/06 Q1024
Conditions at: DAOO (ORAN/ES SENIA , DZ) observed 2300 UTC 19 March 2019
Temperature: 10.0°C (50°F)
Dewpoint: 6.0°C (43°F) [RH = 76%]
Pressure (altimeter): 30.24 inches Hg (1024.0 mb)
Winds: from the NNE (20 degrees) at 8 MPH (7 knots; 3.6 m/s)
Visibility: 6 or more miles (10+ km)
Ceiling: at least 12,000 feet AGL
Clouds: scattered clouds at 2000 feet AGL
scattered clouds at 3000 feet AGL
Weather: no significant weather observed at this time

METAR text: DAOO 192230Z 01002KT 9999 SCT020 SCT030 09/07 Q1024
Conditions at: DAOO (ORAN/ES SENIA , DZ) observed 2230 UTC 19 March 2019
Temperature: 9.0°C (48°F)
Dewpoint: 7.0°C (45°F) [RH = 87%]
Pressure (altimeter): 30.24 inches Hg (1024.0 mb)
Winds: from the N (10 degrees) at 2 MPH (2 knots; 1.0 m/s)
Visibility: 6 or more miles (10+ km)
Ceiling: at least 12,000 feet AGL
Clouds: scattered clouds at 2000 feet AGL
scattered clouds at 3000 feet AGL
Weather: no significant weather observed at this time

METAR text: DAOO 192200Z 01004KT 9999 SCT020 SCT030 09/07 Q1023
Conditions at: DAOO (ORAN/ES SENIA , DZ) observed 2200 UTC 19 March 2019
Temperature: 9.0°C (48°F)
Dewpoint: 7.0°C (45°F) [RH = 87%]
Pressure (altimeter): 30.21 inches Hg (1023.0 mb)
Winds: from the N (10 degrees) at 5 MPH (4 knots; 2.1 m/s)
Visibility: 6 or more miles (10+ km)
Ceiling: at least 12,000 feet AGL
Clouds: scattered clouds at 2000 feet AGL
scattered clouds at 3000 feet AGL
Weather: no significant weather observed at this time

METAR text: DAOO 192130Z 05003KT 9999 SCT020 SCT030 09/07 Q1024
Conditions at: DAOO (ORAN/ES SENIA , DZ) observed 2130 UTC 19 March 2019
Temperature: 9.0°C (48°F)
Dewpoint: 7.0°C (45°F) [RH = 87%]
Pressure (altimeter): 30.24 inches Hg (1024.0 mb)
Winds: from the NE (50 degrees) at 3 MPH (3 knots; 1.5 m/s)
Visibility: 6 or more miles (10+ km)
Ceiling: at least 12,000 feet AGL
Clouds: scattered clouds at 2000 feet AGL
scattered clouds at 3000 feet AGL
Weather: no significant weather observed at this time

METAR text: DAOO 192100Z 00000KT 9999 FEW020 SCT030 10/07 Q1023
Conditions at: DAOO (ORAN/ES SENIA , DZ) observed 2100 UTC 19 March 2019
Temperature: 10.0°C (50°F)
Dewpoint: 7.0°C (45°F) [RH = 82%]
Pressure (altimeter): 30.21 inches Hg (1023.0 mb)
Winds: calm
Visibility: 6 or more miles (10+ km)
Ceiling: at least 12,000 feet AGL
Clouds: few clouds at 2000 feet AGL
scattered clouds at 3000 feet AGL
Weather: no significant weather observed at this time

METAR text: DAOO 192030Z 04005KT 9999 FEW020 SCT030 11/07 Q1023
Conditions at: DAOO (ORAN/ES SENIA , DZ) observed 2030 UTC 19 March 2019
Temperature: 11.0°C (52°F)
Dewpoint: 7.0°C (45°F) [RH = 76%]
Pressure (altimeter): 30.21 inches Hg (1023.0 mb)
Winds: from the NE (40 degrees) at 6 MPH (5 knots; 2.6 m/s)
Visibility: 6 or more miles (10+ km)
Ceiling: at least 12,000 feet AGL
Clouds: few clouds at 2000 feet AGL
scattered clouds at 3000 feet AGL
Weather: no significant weather observed at this time

METAR text: DAOO 192000Z 02007KT 9999 FEW020 SCT030 12/07 Q1023
Conditions at: DAOO (ORAN/ES SENIA , DZ) observed 2000 UTC 19 March 2019
Temperature: 12.0°C (54°F)
Dewpoint: 7.0°C (45°F) [RH = 71%]
Pressure (altimeter): 30.21 inches Hg (1023.0 mb)
Winds: from the NNE (20 degrees) at 8 MPH (7 knots; 3.6 m/s)
Visibility: 6 or more miles (10+ km)
Ceiling: at least 12,000 feet AGL
Clouds: few clouds at 2000 feet AGL
scattered clouds at 3000 feet AGL
Weather: no significant weather observed at this time

METAR text: DAOO 191930Z 02006KT 9999 SCT020 SCT030 12/07 Q1023
Conditions at: DAOO (ORAN/ES SENIA , DZ) observed 1930 UTC 19 March 2019
Temperature: 12.0°C (54°F)
Dewpoint: 7.0°C (45°F) [RH = 71%]
Pressure (altimeter): 30.21 inches Hg (1023.0 mb)
Winds: from the NNE (20 degrees) at 7 MPH (6 knots; 3.1 m/s)
Visibility: 6 or more miles (10+ km)
Ceiling: at least 12,000 feet AGL
Clouds: scattered clouds at 2000 feet AGL
scattered clouds at 3000 feet AGL
Weather: no significant weather observed at this time

METAR text: DAOO 191900Z 02009KT 9999 SCT020 SCT030 12/07 Q1022
Conditions at: DAOO (ORAN/ES SENIA , DZ) observed 1900 UTC 19 March 2019
Temperature: 12.0°C (54°F)
Dewpoint: 7.0°C (45°F) [RH = 71%]
Pressure (altimeter): 30.18 inches Hg (1022.0 mb)
Winds: from the NNE (20 degrees) at 10 MPH (9 knots; 4.6 m/s)
Visibility: 6 or more miles (10+ km)
Ceiling: at least 12,000 feet AGL
Clouds: scattered clouds at 2000 feet AGL
scattered clouds at 3000 feet AGL
Weather: no significant weather observed at this time

METAR text: DAOO 191830Z 02010KT 350V050 9999 BKN026 SCT040 13/09 Q1022
Conditions at: DAOO (ORAN/ES SENIA , DZ) observed 1830 UTC 19 March 2019
Temperature: 13.0°C (55°F)
Dewpoint: 9.0°C (48°F) [RH = 77%]
Pressure (altimeter): 30.18 inches Hg (1022.0 mb)
Winds: from the NNE (20 degrees) at 12 MPH (10 knots; 5.1 m/s)
Visibility: 6 or more miles (10+ km)
Ceiling: 2600 feet AGL
Clouds: broken clouds at 2600 feet AGL
scattered clouds at 4000 feet AGL
Weather: no significant weather observed at this time

METAR text: DAOO 191800Z 02010KT 9999 BKN026 SCT100 13/09 Q1021
Conditions at: DAOO (ORAN/ES SENIA , DZ) observed 1800 UTC 19 March 2019
Temperature: 13.0°C (55°F)
Dewpoint: 9.0°C (48°F) [RH = 77%]
Pressure (altimeter): 30.15 inches Hg (1021.0 mb)
Winds: from the NNE (20 degrees) at 12 MPH (10 knots; 5.1 m/s)
Visibility: 6 or more miles (10+ km)
Ceiling: 2600 feet AGL
Clouds: broken clouds at 2600 feet AGL
scattered clouds at 10000 feet AGL
Weather: no significant weather observed at this time

METAR text: DAOO 191730Z 02010KT 9999 BKN026 SCT100 13/08 Q1021
Conditions at: DAOO (ORAN/ES SENIA , DZ) observed 1730 UTC 19 March 2019
Temperature: 13.0°C (55°F)
Dewpoint: 8.0°C (46°F) [RH = 72%]
Pressure (altimeter): 30.15 inches Hg (1021.0 mb)
Winds: from the NNE (20 degrees) at 12 MPH (10 knots; 5.1 m/s)
Visibility: 6 or more miles (10+ km)
Ceiling: 2600 feet AGL
Clouds: broken clouds at 2600 feet AGL
scattered clouds at 10000 feet AGL
Weather: no significant weather observed at this time

METAR text: DAOO 191700Z 35008KT 9999 BKN026 SCT100 14/08 Q1021
Conditions at: DAOO (ORAN/ES SENIA , DZ) observed 1700 UTC 19 March 2019
Temperature: 14.0°C (57°F)
Dewpoint: 8.0°C (46°F) [RH = 67%]
Pressure (altimeter): 30.15 inches Hg (1021.0 mb)
Winds: from the N (350 degrees) at 9 MPH (8 knots; 4.1 m/s)
Visibility: 6 or more miles (10+ km)
Ceiling: 2600 feet AGL
Clouds: broken clouds at 2600 feet AGL
scattered clouds at 10000 feet AGL
Weather: no significant weather observed at this time

METAR text: DAOO 191630Z 34014KT 9999 BKN026 SCT100 14/08 Q1021
Conditions at: DAOO (ORAN/ES SENIA , DZ) observed 1630 UTC 19 March 2019
Temperature: 14.0°C (57°F)
Dewpoint: 8.0°C (46°F) [RH = 67%]
Pressure (altimeter): 30.15 inches Hg (1021.0 mb)
Winds: from the NNW (340 degrees) at 16 MPH (14 knots; 7.2 m/s)
Visibility: 6 or more miles (10+ km)
Ceiling: 2600 feet AGL
Clouds: broken clouds at 2600 feet AGL
scattered clouds at 10000 feet AGL
Weather: no significant weather observed at this time

METAR text: DAOO 191530Z 33012KT 9999 BKN026 SCT100 15/07 Q1020
Conditions at: DAOO (ORAN/ES SENIA , DZ) observed 1530 UTC 19 March 2019
Temperature: 15.0°C (59°F)
Dewpoint: 7.0°C (45°F) [RH = 59%]
Pressure (altimeter): 30.12 inches Hg (1020.0 mb)
Winds: from the NNW (330 degrees) at 14 MPH (12 knots; 6.2 m/s)
Visibility: 6 or more miles (10+ km)
Ceiling: 2600 feet AGL
Clouds: broken clouds at 2600 feet AGL
scattered clouds at 10000 feet AGL
Weather: no significant weather observed at this time

METAR text: DAOO 191500Z 34012KT 9999 BKN026 SCT100 15/07 Q1020
Conditions at: DAOO (ORAN/ES SENIA , DZ) observed 1500 UTC 19 March 2019
Temperature: 15.0°C (59°F)
Dewpoint: 7.0°C (45°F) [RH = 59%]
Pressure (altimeter): 30.12 inches Hg (1020.0 mb)
Winds: from the NNW (340 degrees) at 14 MPH (12 knots; 6.2 m/s)
Visibility: 6 or more miles (10+ km)
Ceiling: 2600 feet AGL
Clouds: broken clouds at 2600 feet AGL
scattered clouds at 10000 feet AGL
Weather: no significant weather observed at this time

METAR text: DAOO 191430Z 33010KT 9999 BKN026 SCT100 16/07 Q1019
Conditions at: DAOO (ORAN/ES SENIA , DZ) observed 1430 UTC 19 March 2019
Temperature: 16.0°C (61°F)
Dewpoint: 7.0°C (45°F) [RH = 55%]
Pressure (altimeter): 30.09 inches Hg (1019.0 mb)
Winds: from the NNW (330 degrees) at 12 MPH (10 knots; 5.1 m/s)
Visibility: 6 or more miles (10+ km)
Ceiling: 2600 feet AGL
Clouds: broken clouds at 2600 feet AGL
scattered clouds at 10000 feet AGL
Weather: no significant weather observed at this time

METAR text: DAOO 191400Z 33011KT 9999 BKN026 SCT100 17/07 Q1019
Conditions at: DAOO (ORAN/ES SENIA , DZ) observed 1400 UTC 19 March 2019
Temperature: 17.0°C (63°F)
Dewpoint: 7.0°C (45°F) [RH = 52%]
Pressure (altimeter): 30.09 inches Hg (1019.0 mb)
Winds: from the NNW (330 degrees) at 13 MPH (11 knots; 5.7 m/s)
Visibility: 6 or more miles (10+ km)
Ceiling: 2600 feet AGL
Clouds: broken clouds at 2600 feet AGL
scattered clouds at 10000 feet AGL
Weather: no significant weather observed at this time

METAR text: DAOO 191330Z 34009KT 9999 SCT010 BKN026 18/07 Q1020
Conditions at: DAOO (ORAN/ES SENIA , DZ) observed 1330 UTC 19 March 2019
Temperature: 18.0°C (64°F)
Dewpoint: 7.0°C (45°F) [RH = 49%]
Pressure (altimeter): 30.12 inches Hg (1020.0 mb)
Winds: from the NNW (340 degrees) at 10 MPH (9 knots; 4.6 m/s)
Visibility: 6 or more miles (10+ km)
Ceiling: 2600 feet AGL
Clouds: scattered clouds at 1000 feet AGL
broken clouds at 2600 feet AGL
Weather: no significant weather observed at this time

METAR text: DAOO 191300Z 34010KT 9999 BKN026 SCT233 17/07 Q1020
Conditions at: DAOO (ORAN/ES SENIA , DZ) observed 1300 UTC 19 March 2019
Temperature: 17.0°C (63°F)
Dewpoint: 7.0°C (45°F) [RH = 52%]
Pressure (altimeter): 30.12 inches Hg (1020.0 mb)
Winds: from the NNW (340 degrees) at 12 MPH (10 knots; 5.1 m/s)
Visibility: 6 or more miles (10+ km)
Ceiling: 2600 feet AGL
Clouds: broken clouds at 2600 feet AGL
scattered clouds at 23300 feet AGL
Weather: no significant weather observed at this time

METAR text: DAOO 191230Z 32008KT 9999 BKN026 SCT230 17/07 Q1020
Conditions at: DAOO (ORAN/ES SENIA , DZ) observed 1230 UTC 19 March 2019
Temperature: 17.0°C (63°F)
Dewpoint: 7.0°C (45°F) [RH = 52%]
Pressure (altimeter): 30.12 inches Hg (1020.0 mb)
Winds: from the NW (320 degrees) at 9 MPH (8 knots; 4.1 m/s)
Visibility: 6 or more miles (10+ km)
Ceiling: 2600 feet AGL
Clouds: broken clouds at 2600 feet AGL
scattered clouds at 23000 feet AGL
Weather: no significant weather observed at this time

METAR text: DAOO 191200Z 32007KT 9999 BKN026 SCT233 18/07 Q1020
Conditions at: DAOO (ORAN/ES SENIA , DZ) observed 1200 UTC 19 March 2019
Temperature: 18.0°C (64°F)
Dewpoint: 7.0°C (45°F) [RH = 49%]
Pressure (altimeter): 30.12 inches Hg (1020.0 mb)
Winds: from the NW (320 degrees) at 8 MPH (7 knots; 3.6 m/s)
Visibility: 6 or more miles (10+ km)
Ceiling: 2600 feet AGL
Clouds: broken clouds at 2600 feet AGL
scattered clouds at 23300 feet AGL
Weather: no significant weather observed at this time

METAR text: DAOO 191130Z 32008KT 9999 BKN026 SCT233 17/07 Q1021
Conditions at: DAOO (ORAN/ES SENIA , DZ) observed 1130 UTC 19 March 2019
Temperature: 17.0°C (63°F)
Dewpoint: 7.0°C (45°F) [RH = 52%]
Pressure (altimeter): 30.15 inches Hg (1021.0 mb)
Winds: from the NW (320 degrees) at 9 MPH (8 knots; 4.1 m/s)
Visibility: 6 or more miles (10+ km)
Ceiling: 2600 feet AGL
Clouds: broken clouds at 2600 feet AGL
scattered clouds at 23300 feet AGL
Weather: no significant weather observed at this time

METAR text: DAOO 191100Z 35005KT 9999 BKN026 SCT233 17/07 Q1021
Conditions at: DAOO (ORAN/ES SENIA , DZ) observed 1100 UTC 19 March 2019
Temperature: 17.0°C (63°F)
Dewpoint: 7.0°C (45°F) [RH = 52%]
Pressure (altimeter): 30.15 inches Hg (1021.0 mb)
Winds: from the N (350 degrees) at 6 MPH (5 knots; 2.6 m/s)
Visibility: 6 or more miles (10+ km)
Ceiling: 2600 feet AGL
Clouds: broken clouds at 2600 feet AGL
scattered clouds at 23300 feet AGL
Weather: no significant weather observed at this time

METAR text: DAOO 191030Z 34005KT 9999 BKN026 SCT233 16/08 Q1021
Conditions at: DAOO (ORAN/ES SENIA , DZ) observed 1030 UTC 19 March 2019
Temperature: 16.0°C (61°F)
Dewpoint: 8.0°C (46°F) [RH = 59%]
Pressure (altimeter): 30.15 inches Hg (1021.0 mb)
Winds: from the NNW (340 degrees) at 6 MPH (5 knots; 2.6 m/s)
Visibility: 6 or more miles (10+ km)
Ceiling: 2600 feet AGL
Clouds: broken clouds at 2600 feet AGL
scattered clouds at 23300 feet AGL
Weather: no significant weather observed at this time

METAR text: DAOO 191000Z 33004KT 9999 BKN026 SCT233 15/08 Q1021
Conditions at: DAOO (ORAN/ES SENIA , DZ) observed 1000 UTC 19 March 2019
Temperature: 15.0°C (59°F)
Dewpoint: 8.0°C (46°F) [RH = 63%]
Pressure (altimeter): 30.15 inches Hg (1021.0 mb)
Winds: from the NNW (330 degrees) at 5 MPH (4 knots; 2.1 m/s)
Visibility: 6 or more miles (10+ km)
Ceiling: 2600 feet AGL
Clouds: broken clouds at 2600 feet AGL
scattered clouds at 23300 feet AGL
Weather: no significant weather observed at this time

METAR text: DAOO 190930Z 08003KT 9999 SCT026 SCT233 16/08 Q1021
Conditions at: DAOO (ORAN/ES SENIA , DZ) observed 0930 UTC 19 March 2019
Temperature: 16.0°C (61°F)
Dewpoint: 8.0°C (46°F) [RH = 59%]
Pressure (altimeter): 30.15 inches Hg (1021.0 mb)
Winds: from the E (80 degrees) at 3 MPH (3 knots; 1.5 m/s)
Visibility: 6 or more miles (10+ km)
Ceiling: at least 12,000 feet AGL
Clouds: scattered clouds at 2600 feet AGL
scattered clouds at 23300 feet AGL
Weather: no significant weather observed at this time

METAR text: DAOO 190900Z 34003KT 9999 SCT026 SCT233 16/09 Q1021
Conditions at: DAOO (ORAN/ES SENIA , DZ) observed 0900 UTC 19 March 2019
Temperature: 16.0°C (61°F)
Dewpoint: 9.0°C (48°F) [RH = 63%]
Pressure (altimeter): 30.15 inches Hg (1021.0 mb)
Winds: from the NNW (340 degrees) at 3 MPH (3 knots; 1.5 m/s)
Visibility: 6 or more miles (10+ km)
Ceiling: at least 12,000 feet AGL
Clouds: scattered clouds at 2600 feet AGL
scattered clouds at 23300 feet AGL
Weather: no significant weather observed at this time

METAR text: DAOO 190830Z 15002KT 9999 SCT026 SCT230 14/10 Q1021
Conditions at: DAOO (ORAN/ES SENIA , DZ) observed 0830 UTC 19 March 2019
Temperature: 14.0°C (57°F)
Dewpoint: 10.0°C (50°F) [RH = 77%]
Pressure (altimeter): 30.15 inches Hg (1021.0 mb)
Winds: from the SSE (150 degrees) at 2 MPH (2 knots; 1.0 m/s)
Visibility: 6 or more miles (10+ km)
Ceiling: at least 12,000 feet AGL
Clouds: scattered clouds at 2600 feet AGL
scattered clouds at 23000 feet AGL
Weather: no significant weather observed at this time

METAR text: DAOO 190800Z 21002KT 9999 SCT026 SCT233 13/10 Q1021
Conditions at: DAOO (ORAN/ES SENIA , DZ) observed 0800 UTC 19 March 2019
Temperature: 13.0°C (55°F)
Dewpoint: 10.0°C (50°F) [RH = 82%]
Pressure (altimeter): 30.15 inches Hg (1021.0 mb)
Winds: from the SSW (210 degrees) at 2 MPH (2 knots; 1.0 m/s)
Visibility: 6 or more miles (10+ km)
Ceiling: at least 12,000 feet AGL
Clouds: scattered clouds at 2600 feet AGL
scattered clouds at 23300 feet AGL
Weather: no significant weather observed at this time

METAR text: DAOO 190730Z 21003KT 9999 SCT026 11/09 Q1021
Conditions at: DAOO (ORAN/ES SENIA , DZ) observed 0730 UTC 19 March 2019
Temperature: 11.0°C (52°F)
Dewpoint: 9.0°C (48°F) [RH = 87%]
Pressure (altimeter): 30.15 inches Hg (1021.0 mb)
Winds: from the SSW (210 degrees) at 3 MPH (3 knots; 1.5 m/s)
Visibility: 6 or more miles (10+ km)
Ceiling: at least 12,000 feet AGL
Clouds: scattered clouds at 2600 feet AGL
Weather: no significant weather observed at this time

METAR text: DAOO 190700Z 00000KT 9999 SCT026 09/07 Q1021
Conditions at: DAOO (ORAN/ES SENIA , DZ) observed 0700 UTC 19 March 2019
Temperature: 9.0°C (48°F)
Dewpoint: 7.0°C (45°F) [RH = 87%]
Pressure (altimeter): 30.15 inches Hg (1021.0 mb)
Winds: calm
Visibility: 6 or more miles (10+ km)
Ceiling: at least 12,000 feet AGL
Clouds: scattered clouds at 2600 feet AGL
Weather: no significant weather observed at this time

METAR text: DAOO 190630Z 22004KT 9999 SCT026 09/07 Q1021
Conditions at: DAOO (ORAN/ES SENIA , DZ) observed 0630 UTC 19 March 2019
Temperature: 9.0°C (48°F)
Dewpoint: 7.0°C (45°F) [RH = 87%]
Pressure (altimeter): 30.15 inches Hg (1021.0 mb)
Winds: from the SW (220 degrees) at 5 MPH (4 knots; 2.1 m/s)
Visibility: 6 or more miles (10+ km)
Ceiling: at least 12,000 feet AGL
Clouds: scattered clouds at 2600 feet AGL
Weather: no significant weather observed at this time

METAR text: DAOO 190600Z 22004KT 9999 SCT026 09/07 Q1021
Conditions at: DAOO (ORAN/ES SENIA , DZ) observed 0600 UTC 19 March 2019
Temperature: 9.0°C (48°F)
Dewpoint: 7.0°C (45°F) [RH = 87%]
Pressure (altimeter): 30.15 inches Hg (1021.0 mb)
Winds: from the SW (220 degrees) at 5 MPH (4 knots; 2.1 m/s)
Visibility: 6 or more miles (10+ km)
Ceiling: at least 12,000 feet AGL
Clouds: scattered clouds at 2600 feet AGL
Weather: no significant weather observed at this time

METAR text: DAOO 190530Z 08004KT 9999 SCT026 10/08 Q1021
Conditions at: DAOO (ORAN/ES SENIA , DZ) observed 0530 UTC 19 March 2019
Temperature: 10.0°C (50°F)
Dewpoint: 8.0°C (46°F) [RH = 87%]
Pressure (altimeter): 30.15 inches Hg (1021.0 mb)
Winds: from the E (80 degrees) at 5 MPH (4 knots; 2.1 m/s)
Visibility: 6 or more miles (10+ km)
Ceiling: at least 12,000 feet AGL
Clouds: scattered clouds at 2600 feet AGL
Weather: no significant weather observed at this time

METAR text: DAOO 190500Z 08004KT 9999 SCT026 10/08 Q1021
Conditions at: DAOO (ORAN/ES SENIA , DZ) observed 0500 UTC 19 March 2019
Temperature: 10.0°C (50°F)
Dewpoint: 8.0°C (46°F) [RH = 87%]
Pressure (altimeter): 30.15 inches Hg (1021.0 mb)
Winds: from the E (80 degrees) at 5 MPH (4 knots; 2.1 m/s)
Visibility: 6 or more miles (10+ km)
Ceiling: at least 12,000 feet AGL
Clouds: scattered clouds at 2600 feet AGL
Weather: no significant weather observed at this time

METAR text: DAOO 190430Z 08004KT 9999 SCT026 10/08 Q1021
Conditions at: DAOO (ORAN/ES SENIA , DZ) observed 0430 UTC 19 March 2019
Temperature: 10.0°C (50°F)
Dewpoint: 8.0°C (46°F) [RH = 87%]
Pressure (altimeter): 30.15 inches Hg (1021.0 mb)
Winds: from the E (80 degrees) at 5 MPH (4 knots; 2.1 m/s)
Visibility: 6 or more miles (10+ km)
Ceiling: at least 12,000 feet AGL
Clouds: scattered clouds at 2600 feet AGL
Weather: no significant weather observed at this time

METAR text: DAOO 190400Z 08004KT 9999 SCT026 10/08 Q1021
Conditions at: DAOO (ORAN/ES SENIA , DZ) observed 0400 UTC 19 March 2019
Temperature: 10.0°C (50°F)
Dewpoint: 8.0°C (46°F) [RH = 87%]
Pressure (altimeter): 30.15 inches Hg (1021.0 mb)
Winds: from the E (80 degrees) at 5 MPH (4 knots; 2.1 m/s)
Visibility: 6 or more miles (10+ km)
Ceiling: at least 12,000 feet AGL
Clouds: scattered clouds at 2600 feet AGL
Weather: no significant weather observed at this time

METAR text: DAOO 190330Z 08004KT 9999 SCT026 10/08 Q1021
Conditions at: DAOO (ORAN/ES SENIA , DZ) observed 0330 UTC 19 March 2019
Temperature: 10.0°C (50°F)
Dewpoint: 8.0°C (46°F) [RH = 87%]
Pressure (altimeter): 30.15 inches Hg (1021.0 mb)
Winds: from the E (80 degrees) at 5 MPH (4 knots; 2.1 m/s)
Visibility: 6 or more miles (10+ km)
Ceiling: at least 12,000 feet AGL
Clouds: scattered clouds at 2600 feet AGL
Weather: no significant weather observed at this time

Forecast for: DAOO (ORAN/ES SENIA , DZ)
Text: TAF DAOO 201100Z 2012/2112 VRB02KT 9999 FEW023TCU SCT026
Forecast period: 1200 to 1300 UTC 20 March 2019
Forecast type: FROM: standard forecast or significant change
Winds: variable direction winds at 2 MPH (2 knots; 1.0 m/s)
Visibility: 6 or more miles 10+ km)
Ceiling: at least 12,000 feet AGL
Clouds: few clouds at 2300 feet AGL
scattered clouds at 2600 feet AGL
Weather: no significant weather forecast for this period
Text: BECMG 2013/2015 04016KT
Forecast period: 1300 to 2000 UTC 20 March 2019
Forecast type: BECOMING: Conditions expected to become as follows by 1500 UTC 20 March 2019
Winds: from the NE (40 degrees) at 18 MPH (16 knots; 8.2 m/s)
Visibility: 6 or more miles 10+ km)
Ceiling: at least 12,000 feet AGL
Clouds: few clouds at 2300 feet AGL
scattered clouds at 2600 feet AGL
Weather: no significant weather forecast for this period
Text: BECMG 2020/2023 VRB02KT
Forecast period: 2000 UTC 20 March 2019 to 0900 UTC 21 March 2019
Forecast type: BECOMING: Conditions expected to become as follows by 2300 UTC 20 March 2019
Winds: variable direction winds at 2 MPH (2 knots; 1.0 m/s)
Visibility: 6 or more miles 10+ km)
Ceiling: at least 12,000 feet AGL
Clouds: few clouds at 2300 feet AGL
scattered clouds at 2600 feet AGL
Weather: no significant weather forecast for this period
Text: PROB30
Forecast period: 2200 UTC 20 March 2019 to 1200 UTC 21 March 2019
Forecast type: TEMPORARY: The following changes expected for less than half the time period
Visibility: 4 miles (6 km)
Ceiling: 2300 feet AGL
Clouds: scattered clouds at 1300 feet AGL
broken clouds at 2300 feet AGL
few clouds at 2600 feet AGL
Weather: -TSRA  (light rain associated with thunderstorm(s))
Text: TEMPO 2022/2112 6000 -TSRA SCT013 BKN023 FEW026CB
Forecast period: 0900 to 1200 UTC 21 March 2019
Forecast type: BECOMING: Conditions expected to become as follows by 1200 UTC 21 March 2019
Winds: from the NE (40 degrees) at 16 MPH (14 knots; 7.2 m/s)
Visibility: 6 or more miles 10+ km)
Ceiling: at least 12,000 feet AGL
Clouds: few clouds at 2300 feet AGL
scattered clouds at 2600 feet AGL
Weather: no significant weather forecast for this period